sensor_id;sensor_type;location;lat;lon;timestamp;noise_LAeq;noise_LA_min;noise_LA_max;noise_LA01;noise_LA95
45109;Laerm;30447;48.742;8.972;2023-04-03T00:01:03;38.31;33.44;57.00;;
45109;Laerm;30447;48.742;8.972;2023-04-03T00:03:29;37.53;33.90;47.48;;
45109;Laerm;30447;48.742;8.972;2023-04-03T00:05:56;37.52;32.35;40.03;;
45109;Laerm;30447;48.742;8.972;2023-04-03T00:08:22;37.56;33.44;40.33;;
45109;Laerm;30447;48.742;8.972;2023-04-03T00:10:49;37.89;33.90;41.53;;
45109;Laerm;30447;48.742;8.972;2023-04-03T00:13:16;37.64;33.44;41.06;;
45109;Laerm;30447;48.742;8.972;2023-04-03T00:15:43;38.39;33.90;50.63;;
45109;Laerm;30447;48.742;8.972;2023-04-03T00:18:10;38.03;33.44;41.14;;
45109;Laerm;30447;48.742;8.972;2023-04-03T00:20:36;37.98;33.44;43.63;;
45109;Laerm;30447;48.742;8.972;2023-04-03T00:23:03;37.93;34.31;42.47;;
45109;Laerm;30447;48.742;8.972;2023-04-03T00:25:29;38.22;34.31;42.98;;
45109;Laerm;30447;48.742;8.972;2023-04-03T00:27:56;38.29;35.04;40.80;;
45109;Laerm;30447;48.742;8.972;2023-04-03T00:30:23;38.21;33.90;46.91;;
45109;Laerm;30447;48.742;8.972;2023-04-03T00:32:51;37.93;33.90;41.82;;
45109;Laerm;30447;48.742;8.972;2023-04-03T00:35:19;38.16;33.44;46.48;;
45109;Laerm;30447;48.742;8.972;2023-04-03T00:37:46;37.83;33.90;45.48;;
45109;Laerm;30447;48.742;8.972;2023-04-03T00:40:14;37.64;33.90;41.61;;
45109;Laerm;30447;48.742;8.972;2023-04-03T00:42:43;37.89;33.90;41.53;;
45109;Laerm;30447;48.742;8.972;2023-04-03T00:48:18;37.82;32.93;40.80;;
45109;Laerm;30447;48.742;8.972;2023-04-03T00:50:47;37.88;33.90;42.03;;
45109;Laerm;30447;48.742;8.972;2023-04-03T00:53:19;37.72;33.90;41.96;;
45109;Laerm;30447;48.742;8.972;2023-04-03T00:55:49;38.06;33.44;58.38;;
45109;Laerm;30447;48.742;8.972;2023-04-03T00:58:20;37.71;33.90;40.43;;
45109;Laerm;30447;48.742;8.972;2023-04-03T01:00:55;38.05;34.31;42.82;;
45109;Laerm;30447;48.742;8.972;2023-04-03T01:03:24;38.61;33.90;43.63;;
45109;Laerm;30447;48.742;8.972;2023-04-03T01:05:51;38.90;33.90;42.88;;
45109;Laerm;30447;48.742;8.972;2023-04-03T01:08:17;37.63;33.44;40.23;;
45109;Laerm;30447;48.742;8.972;2023-04-03T01:10:44;37.92;33.90;43.24;;
45109;Laerm;30447;48.742;8.972;2023-04-03T01:13:31;38.14;34.31;40.89;;
45109;Laerm;30447;48.742;8.972;2023-04-03T01:16:03;37.94;34.31;40.80;;
45109;Laerm;30447;48.742;8.972;2023-04-03T01:18:30;37.64;33.44;40.62;;
45109;Laerm;30447;48.742;8.972;2023-04-03T01:24:12;37.88;33.90;40.53;;
45109;Laerm;30447;48.742;8.972;2023-04-03T01:26:41;37.69;33.44;40.33;;
45109;Laerm;30447;48.742;8.972;2023-04-03T01:29:08;37.76;33.55;40.62;;
45109;Laerm;30447;48.742;8.972;2023-04-03T01:34:01;38.36;34.31;41.14;;
45109;Laerm;30447;48.742;8.972;2023-04-03T01:36:30;38.24;35.04;40.98;;
45109;Laerm;30447;48.742;8.972;2023-04-03T01:38:58;38.39;35.04;41.38;;
45109;Laerm;30447;48.742;8.972;2023-04-03T01:41:25;37.96;33.44;40.62;;
45109;Laerm;30447;48.742;8.972;2023-04-03T01:43:52;38.03;33.90;40.62;;
45109;Laerm;30447;48.742;8.972;2023-04-03T01:46:19;38.17;33.90;40.98;;
45109;Laerm;30447;48.742;8.972;2023-04-03T01:48:46;38.24;34.31;40.80;;
45109;Laerm;30447;48.742;8.972;2023-04-03T01:51:13;38.38;33.90;41.14;;
45109;Laerm;30447;48.742;8.972;2023-04-03T01:53:40;38.15;34.31;41.38;;
45109;Laerm;30447;48.742;8.972;2023-04-03T01:56:07;38.57;35.04;42.03;;
45109;Laerm;30447;48.742;8.972;2023-04-03T01:58:33;38.92;34.69;41.38;;
45109;Laerm;30447;48.742;8.972;2023-04-03T02:00:59;38.21;34.31;41.06;;
45109;Laerm;30447;48.742;8.972;2023-04-03T02:03:26;38.07;34.69;40.71;;
45109;Laerm;30447;48.742;8.972;2023-04-03T02:05:53;38.48;34.31;42.41;;
45109;Laerm;30447;48.742;8.972;2023-04-03T02:08:19;38.17;33.44;41.61;;
45109;Laerm;30447;48.742;8.972;2023-04-03T02:10:50;38.54;35.04;41.22;;
45109;Laerm;30447;48.742;8.972;2023-04-03T02:13:17;38.79;34.69;44.31;;
45109;Laerm;30447;48.742;8.972;2023-04-03T02:15:43;38.54;34.31;42.41;;
45109;Laerm;30447;48.742;8.972;2023-04-03T02:18:11;38.36;33.90;40.89;;
45109;Laerm;30447;48.742;8.972;2023-04-03T02:20:38;38.93;34.31;44.31;;
45109;Laerm;30447;48.742;8.972;2023-04-03T02:23:04;38.74;34.31;43.58;;
45109;Laerm;30447;48.742;8.972;2023-04-03T02:25:33;38.66;34.31;41.38;;
45109;Laerm;30447;48.742;8.972;2023-04-03T02:28:00;38.58;35.01;41.06;;
45109;Laerm;30447;48.742;8.972;2023-04-03T02:30:26;38.80;35.04;41.53;;
45109;Laerm;30447;48.742;8.972;2023-04-03T02:32:53;39.04;35.66;41.75;;
45109;Laerm;30447;48.742;8.972;2023-04-03T02:35:19;38.82;34.31;41.53;;
45109;Laerm;30447;48.742;8.972;2023-04-03T02:37:46;39.11;35.36;41.68;;
45109;Laerm;30447;48.742;8.972;2023-04-03T02:40:12;38.99;35.66;41.68;;
45109;Laerm;30447;48.742;8.972;2023-04-03T02:42:39;38.57;35.36;40.98;;
45109;Laerm;30447;48.742;8.972;2023-04-03T02:45:06;38.41;34.31;41.22;;
45109;Laerm;30447;48.742;8.972;2023-04-03T02:47:32;39.23;35.36;42.03;;
45109;Laerm;30447;48.742;8.972;2023-04-03T02:49:59;39.56;35.04;42.29;;
45109;Laerm;30447;48.742;8.972;2023-04-03T02:52:25;39.19;35.36;43.19;;
45109;Laerm;30447;48.742;8.972;2023-04-03T02:54:51;39.15;35.94;51.14;;
45109;Laerm;30447;48.742;8.972;2023-04-03T02:57:18;38.99;34.69;45.75;;
45109;Laerm;30447;48.742;8.972;2023-04-03T02:59:45;38.81;35.36;41.22;;
45109;Laerm;30447;48.742;8.972;2023-04-03T03:02:12;39.05;35.66;41.89;;
45109;Laerm;30447;48.742;8.972;2023-04-03T03:04:38;38.93;35.36;41.53;;
45109;Laerm;30447;48.742;8.972;2023-04-03T03:07:05;39.46;35.66;42.03;;
45109;Laerm;30447;48.742;8.972;2023-04-03T03:09:31;39.15;35.66;42.53;;
45109;Laerm;30447;48.742;8.972;2023-04-03T03:11:58;39.37;35.94;43.24;;
45109;Laerm;30447;48.742;8.972;2023-04-03T03:14:24;39.26;35.94;43.14;;
45109;Laerm;30447;48.742;8.972;2023-04-03T03:16:51;39.19;35.36;42.22;;
45109;Laerm;30447;48.742;8.972;2023-04-03T03:19:17;39.25;35.66;41.53;;
45109;Laerm;30447;48.742;8.972;2023-04-03T03:21:44;39.17;35.94;41.96;;
45109;Laerm;30447;48.742;8.972;2023-04-03T03:24:10;39.43;36.20;41.96;;
45109;Laerm;30447;48.742;8.972;2023-04-03T03:26:38;39.53;35.86;41.61;;
45109;Laerm;30447;48.742;8.972;2023-04-03T03:29:04;39.71;35.94;44.27;;
45109;Laerm;30447;48.742;8.972;2023-04-03T03:31:31;39.52;35.94;44.54;;
45109;Laerm;30447;48.742;8.972;2023-04-03T03:33:57;39.75;35.66;47.36;;
45109;Laerm;30447;48.742;8.972;2023-04-03T03:36:24;39.67;36.20;46.08;;
45109;Laerm;30447;48.742;8.972;2023-04-03T03:38:50;39.58;36.20;43.58;;
45109;Laerm;30447;48.742;8.972;2023-04-03T03:41:17;39.41;35.04;43.54;;
45109;Laerm;30447;48.742;8.972;2023-04-03T03:43:43;39.74;36.45;44.94;;
45109;Laerm;30447;48.742;8.972;2023-04-03T03:46:10;40.55;36.45;58.11;;
45109;Laerm;30447;48.742;8.972;2023-04-03T03:48:36;42.21;36.20;57.49;;
45109;Laerm;30447;48.742;8.972;2023-04-03T03:51:03;44.24;35.66;58.06;;
45109;Laerm;30447;48.742;8.972;2023-04-03T03:53:29;43.48;36.69;58.23;;
45109;Laerm;30447;48.742;8.972;2023-04-03T03:55:56;43.40;36.20;60.05;;
45109;Laerm;30447;48.742;8.972;2023-04-03T03:58:23;43.94;36.69;59.08;;
45109;Laerm;30447;48.742;8.972;2023-04-03T04:00:49;43.57;37.52;58.44;;
45109;Laerm;30447;48.742;8.972;2023-04-03T04:03:16;47.27;36.45;66.43;;
45109;Laerm;30447;48.742;8.972;2023-04-03T04:05:42;53.26;36.45;68.87;;
45109;Laerm;30447;48.742;8.972;2023-04-03T04:08:09;52.81;35.36;68.05;;
45109;Laerm;30447;48.742;8.972;2023-04-03T04:10:37;53.48;36.69;70.12;;
45109;Laerm;30447;48.742;8.972;2023-04-03T04:13:04;53.82;36.45;69.54;;
45109;Laerm;30447;48.742;8.972;2023-04-03T04:15:30;53.95;36.69;70.87;;
45109;Laerm;30447;48.742;8.972;2023-04-03T04:17:57;53.43;37.52;69.37;;
45109;Laerm;30447;48.742;8.972;2023-04-03T04:20:23;52.87;38.05;69.69;;
45109;Laerm;30447;48.742;8.972;2023-04-03T04:22:50;53.56;37.70;70.56;;
45109;Laerm;30447;48.742;8.972;2023-04-03T04:25:16;55.88;38.05;73.84;;
45109;Laerm;30447;48.742;8.972;2023-04-03T04:27:43;55.64;37.32;72.35;;
45109;Laerm;30447;48.742;8.972;2023-04-03T04:30:10;54.38;37.70;72.89;;
45109;Laerm;30447;48.742;8.972;2023-04-03T04:32:37;57.61;37.52;72.68;;
45109;Laerm;30447;48.742;8.972;2023-04-03T04:35:04;55.88;38.37;72.17;;
45109;Laerm;30447;48.742;8.972;2023-04-03T04:37:31;44.21;37.12;62.20;;
45109;Laerm;30447;48.742;8.972;2023-04-03T04:39:57;40.98;37.12;60.06;;
45109;Laerm;30447;48.742;8.972;2023-04-03T04:42:24;40.31;37.32;43.63;;
45109;Laerm;30447;48.742;8.972;2023-04-03T04:44:50;44.25;37.35;59.04;;
45109;Laerm;30447;48.742;8.972;2023-04-03T04:47:17;44.27;37.12;59.59;;
45109;Laerm;30447;48.742;8.972;2023-04-03T04:49:43;40.63;35.36;49.77;;
45109;Laerm;30447;48.742;8.972;2023-04-03T04:52:10;41.77;37.52;52.36;;
45109;Laerm;30447;48.742;8.972;2023-04-03T04:54:36;40.39;37.12;48.25;;
45109;Laerm;30447;48.742;8.972;2023-04-03T04:57:03;40.17;37.12;45.11;;
45109;Laerm;30447;48.742;8.972;2023-04-03T04:59:29;40.40;37.32;53.64;;
45109;Laerm;30447;48.742;8.972;2023-04-03T05:01:56;40.74;37.52;51.79;;
45109;Laerm;30447;48.742;8.972;2023-04-03T05:04:22;40.63;37.87;51.43;;
45109;Laerm;30447;48.742;8.972;2023-04-03T05:06:48;41.16;37.52;56.49;;
45109;Laerm;30447;48.742;8.972;2023-04-03T05:09:15;45.94;37.52;61.99;;
45109;Laerm;30447;48.742;8.972;2023-04-03T05:11:41;45.99;38.02;61.24;;
45109;Laerm;30447;48.742;8.972;2023-04-03T05:14:09;42.95;37.32;62.76;;
45109;Laerm;30447;48.742;8.972;2023-04-03T05:16:35;41.25;36.69;56.74;;
45109;Laerm;30447;48.742;8.972;2023-04-03T05:19:02;41.23;37.12;51.41;;
45109;Laerm;30447;48.742;8.972;2023-04-03T05:21:29;41.31;37.70;57.62;;
45109;Laerm;30447;48.742;8.972;2023-04-03T05:23:59;40.98;37.32;52.05;;
45109;Laerm;30447;48.742;8.972;2023-04-03T05:26:31;43.13;35.94;64.19;;
45109;Laerm;30447;48.742;8.972;2023-04-03T05:28:58;44.89;37.70;61.98;;
45109;Laerm;30447;48.742;8.972;2023-04-03T05:31:24;42.11;38.81;47.12;;
45109;Laerm;30447;48.742;8.972;2023-04-03T05:33:51;41.17;37.52;56.23;;
45109;Laerm;30447;48.742;8.972;2023-04-03T05:36:18;40.28;36.91;44.54;;
45109;Laerm;30447;48.742;8.972;2023-04-03T05:38:44;41.34;38.05;44.76;;
45109;Laerm;30447;48.742;8.972;2023-04-03T05:41:11;41.57;36.69;52.60;;
45109;Laerm;30447;48.742;8.972;2023-04-03T05:43:38;40.64;37.52;57.57;;
45109;Laerm;30447;48.742;8.972;2023-04-03T05:46:12;40.67;35.94;55.12;;
45109;Laerm;30447;48.742;8.972;2023-04-03T05:48:39;41.88;37.52;57.88;;
45109;Laerm;30447;48.742;8.972;2023-04-03T05:51:06;47.39;37.70;62.56;;
45109;Laerm;30447;48.742;8.972;2023-04-03T05:53:35;41.90;37.88;55.11;;
45109;Laerm;30447;48.742;8.972;2023-04-03T05:56:05;43.85;38.67;56.02;;
45109;Laerm;30447;48.742;8.972;2023-04-03T05:58:32;40.94;37.12;47.02;;
45109;Laerm;30447;48.742;8.972;2023-04-03T06:00:58;40.50;37.52;48.20;;
45109;Laerm;30447;48.742;8.972;2023-04-03T06:03:25;41.31;37.88;56.96;;
45109;Laerm;30447;48.742;8.972;2023-04-03T06:05:51;41.66;36.69;52.14;;
45109;Laerm;30447;48.742;8.972;2023-04-03T06:08:18;43.35;37.70;58.51;;
45109;Laerm;30447;48.742;8.972;2023-04-03T06:10:44;44.59;38.21;57.60;;
45109;Laerm;30447;48.742;8.972;2023-04-03T06:13:11;45.42;38.52;60.84;;
45109;Laerm;30447;48.742;8.972;2023-04-03T06:15:38;42.04;38.37;56.51;;
45109;Laerm;30447;48.742;8.972;2023-04-03T06:18:06;41.76;38.81;51.45;;
45109;Laerm;30447;48.742;8.972;2023-04-03T06:20:32;42.43;38.67;49.82;;
45109;Laerm;30447;48.742;8.972;2023-04-03T06:22:59;42.42;38.37;52.91;;
45109;Laerm;30447;48.742;8.972;2023-04-03T06:25:26;41.88;38.52;52.57;;
45109;Laerm;30447;48.742;8.972;2023-04-03T06:27:52;41.98;38.95;50.63;;
45109;Laerm;30447;48.742;8.972;2023-04-03T06:30:21;41.94;38.05;48.18;;
45109;Laerm;30447;48.742;8.972;2023-04-03T06:32:48;41.74;38.81;45.66;;
45109;Laerm;30447;48.742;8.972;2023-04-03T06:35:14;41.59;38.05;51.51;;
45109;Laerm;30447;48.742;8.972;2023-04-03T06:37:41;41.25;38.37;50.77;;
45109;Laerm;30447;48.742;8.972;2023-04-03T06:40:18;41.07;37.70;55.31;;
45109;Laerm;30447;48.742;8.972;2023-04-03T06:42:46;41.78;37.88;54.77;;
45109;Laerm;30447;48.742;8.972;2023-04-03T06:45:13;43.91;38.05;57.24;;
45109;Laerm;30447;48.742;8.972;2023-04-03T06:47:40;47.01;38.05;58.62;;
45109;Laerm;30447;48.742;8.972;2023-04-03T06:50:06;46.19;38.05;69.86;;
45109;Laerm;30447;48.742;8.972;2023-04-03T06:52:33;40.97;37.12;52.45;;
45109;Laerm;30447;48.742;8.972;2023-04-03T06:54:59;41.00;38.37;54.36;;
45109;Laerm;30447;48.742;8.972;2023-04-03T06:57:26;40.78;36.91;46.71;;
45109;Laerm;30447;48.742;8.972;2023-04-03T06:59:53;40.41;37.12;43.19;;
45109;Laerm;30447;48.742;8.972;2023-04-03T07:02:19;41.17;37.52;61.33;;
45109;Laerm;30447;48.742;8.972;2023-04-03T07:04:46;40.64;37.12;44.54;;
45109;Laerm;30447;48.742;8.972;2023-04-03T07:07:13;40.48;37.32;49.38;;
45109;Laerm;30447;48.742;8.972;2023-04-03T07:09:39;40.34;36.20;57.09;;
45109;Laerm;30447;48.742;8.972;2023-04-03T07:12:06;49.97;36.91;69.89;;
45109;Laerm;30447;48.742;8.972;2023-04-03T07:14:33;40.85;37.32;58.91;;
45109;Laerm;30447;48.742;8.972;2023-04-03T07:16:59;43.13;36.45;55.09;;
45109;Laerm;30447;48.742;8.972;2023-04-03T07:19:26;42.33;38.21;53.57;;
45109;Laerm;30447;48.742;8.972;2023-04-03T07:21:54;41.12;36.20;52.21;;
45109;Laerm;30447;48.742;8.972;2023-04-03T07:24:21;41.35;37.32;50.06;;
45109;Laerm;30447;48.742;8.972;2023-04-03T07:26:52;40.71;36.20;47.65;;
45109;Laerm;30447;48.742;8.972;2023-04-03T07:29:19;42.82;37.52;57.23;;
45109;Laerm;30447;48.742;8.972;2023-04-03T07:31:47;48.09;38.21;62.26;;
45109;Laerm;30447;48.742;8.972;2023-04-03T07:34:14;41.04;37.32;47.32;;
45109;Laerm;30447;48.742;8.972;2023-04-03T07:36:40;42.80;37.88;57.95;;
45109;Laerm;30447;48.742;8.972;2023-04-03T07:39:07;41.78;37.32;55.50;;
45109;Laerm;30447;48.742;8.972;2023-04-03T07:41:34;42.87;37.88;55.61;;
45109;Laerm;30447;48.742;8.972;2023-04-03T07:44:00;41.12;37.52;52.25;;
45109;Laerm;30447;48.742;8.972;2023-04-03T07:46:27;42.72;37.88;60.37;;
45109;Laerm;30447;48.742;8.972;2023-04-03T07:48:54;41.94;38.21;50.07;;
45109;Laerm;30447;48.742;8.972;2023-04-03T07:51:20;41.86;38.21;53.77;;
45109;Laerm;30447;48.742;8.972;2023-04-03T07:53:47;40.82;37.12;47.95;;
45109;Laerm;30447;48.742;8.972;2023-04-03T07:56:16;40.68;35.94;53.56;;
45109;Laerm;30447;48.742;8.972;2023-04-03T07:58:43;42.49;36.20;58.67;;
45109;Laerm;30447;48.742;8.972;2023-04-03T08:01:09;46.85;36.91;63.57;;
45109;Laerm;30447;48.742;8.972;2023-04-03T08:03:36;42.73;38.05;56.99;;
45109;Laerm;30447;48.742;8.972;2023-04-03T08:06:06;41.47;37.52;52.04;;
45109;Laerm;30447;48.742;8.972;2023-04-03T08:08:33;42.05;37.32;52.98;;
45109;Laerm;30447;48.742;8.972;2023-04-03T08:11:00;43.61;37.52;56.65;;
45109;Laerm;30447;48.742;8.972;2023-04-03T08:13:29;42.97;38.21;60.97;;
45109;Laerm;30447;48.742;8.972;2023-04-03T08:15:56;43.34;37.12;52.26;;
45109;Laerm;30447;48.742;8.972;2023-04-03T08:18:25;41.74;37.32;52.51;;
45109;Laerm;30447;48.742;8.972;2023-04-03T08:20:52;42.30;36.91;48.37;;
45109;Laerm;30447;48.742;8.972;2023-04-03T08:23:19;41.69;37.12;49.80;;
45109;Laerm;30447;48.742;8.972;2023-04-03T08:25:46;42.85;38.52;52.66;;
45109;Laerm;30447;48.742;8.972;2023-04-03T08:28:12;42.66;37.88;56.75;;
45109;Laerm;30447;48.742;8.972;2023-04-03T08:30:40;41.09;37.12;45.48;;
45109;Laerm;30447;48.742;8.972;2023-04-03T08:33:09;41.99;38.21;59.39;;
45109;Laerm;30447;48.742;8.972;2023-04-03T08:35:40;41.91;38.21;56.05;;
45109;Laerm;30447;48.742;8.972;2023-04-03T08:38:08;41.95;38.52;54.17;;
45109;Laerm;30447;48.742;8.972;2023-04-03T08:40:35;41.67;37.88;48.15;;
45109;Laerm;30447;48.742;8.972;2023-04-03T08:43:28;41.70;37.70;54.12;;
45109;Laerm;30447;48.742;8.972;2023-04-03T08:46:05;42.43;37.52;51.22;;
45109;Laerm;30447;48.742;8.972;2023-04-03T08:48:41;42.03;38.05;53.42;;
45109;Laerm;30447;48.742;8.972;2023-04-03T08:51:15;41.87;37.52;52.41;;
45109;Laerm;30447;48.742;8.972;2023-04-03T08:54:04;41.09;36.91;57.41;;
45109;Laerm;30447;48.742;8.972;2023-04-03T08:56:35;41.68;38.21;55.85;;
45109;Laerm;30447;48.742;8.972;2023-04-03T08:59:12;42.57;38.81;54.91;;
45109;Laerm;30447;48.742;8.972;2023-04-03T09:01:41;41.13;37.12;49.35;;
45109;Laerm;30447;48.742;8.972;2023-04-03T09:04:12;40.68;36.69;53.14;;
45109;Laerm;30447;48.742;8.972;2023-04-03T09:06:46;41.34;36.91;56.71;;
45109;Laerm;30447;48.742;8.972;2023-04-03T09:09:33;41.24;37.52;52.67;;
45109;Laerm;30447;48.742;8.972;2023-04-03T09:12:06;44.19;37.70;55.40;;
45109;Laerm;30447;48.742;8.972;2023-04-03T09:15:00;44.91;37.70;59.35;;
45109;Laerm;30447;48.742;8.972;2023-04-03T09:17:41;49.07;37.52;61.74;;
45109;Laerm;30447;48.742;8.972;2023-04-03T09:20:23;45.46;37.88;61.33;;
45109;Laerm;30447;48.742;8.972;2023-04-03T09:22:53;42.78;37.52;58.47;;
45109;Laerm;30447;48.742;8.972;2023-04-03T09:25:27;49.58;38.05;62.28;;
45109;Laerm;30447;48.742;8.972;2023-04-03T09:28:03;52.55;37.88;67.47;;
45109;Laerm;30447;48.742;8.972;2023-04-03T09:30:30;49.36;36.91;65.20;;
45109;Laerm;30447;48.742;8.972;2023-04-03T09:32:57;69.07;38.37;76.99;;
45109;Laerm;30447;48.742;8.972;2023-04-03T09:35:28;68.57;44.54;75.79;;
45109;Laerm;30447;48.742;8.972;2023-04-03T09:40:44;48.96;38.05;67.59;;
45109;Laerm;30447;48.742;8.972;2023-04-03T09:43:32;46.77;42.71;58.03;;
45109;Laerm;30447;48.742;8.972;2023-04-03T09:46:30;55.44;37.88;67.37;;
45109;Laerm;30447;48.742;8.972;2023-04-03T09:49:03;60.99;54.15;67.58;;
45109;Laerm;30447;48.742;8.972;2023-04-03T09:51:30;59.74;38.37;65.66;;
45109;Laerm;30447;48.742;8.972;2023-04-03T09:53:57;45.28;37.88;68.58;;
45109;Laerm;30447;48.742;8.972;2023-04-03T09:56:27;45.64;38.81;53.32;;
45109;Laerm;30447;48.742;8.972;2023-04-03T09:59:06;59.28;39.08;67.14;;
45109;Laerm;30447;48.742;8.972;2023-04-03T10:01:39;56.12;38.21;63.04;;
45109;Laerm;30447;48.742;8.972;2023-04-03T10:04:15;42.49;38.52;61.46;;
45109;Laerm;30447;48.742;8.972;2023-04-03T10:06:47;42.14;37.32;64.43;;
45109;Laerm;30447;48.742;8.972;2023-04-03T10:09:24;42.79;36.69;56.58;;
45109;Laerm;30447;48.742;8.972;2023-04-03T10:14:23;56.81;37.52;66.04;;
45109;Laerm;30447;48.742;8.972;2023-04-03T10:16:58;59.96;39.58;67.22;;
45109;Laerm;30447;48.742;8.972;2023-04-03T10:22:37;56.01;36.20;64.78;;
45109;Laerm;30447;48.742;8.972;2023-04-03T10:25:21;57.57;48.25;65.29;;
45109;Laerm;30447;48.742;8.972;2023-04-03T10:28:00;56.35;35.66;67.76;;
45109;Laerm;30447;48.742;8.972;2023-04-03T10:30:44;55.50;49.06;63.30;;
45109;Laerm;30447;48.742;8.972;2023-04-03T10:33:24;54.71;36.20;62.50;;
45109;Laerm;30447;48.742;8.972;2023-04-03T10:47:41;42.73;35.94;68.01;;
45109;Laerm;30447;48.742;8.972;2023-04-03T10:53:19;44.22;36.69;58.88;;
45109;Laerm;30447;48.742;8.972;2023-04-03T10:56:03;40.24;35.66;57.28;;
45109;Laerm;30447;48.742;8.972;2023-04-03T10:58:41;42.20;37.12;60.22;;
45109;Laerm;30447;48.742;8.972;2023-04-03T11:01:16;41.40;35.94;57.35;;
45109;Laerm;30447;48.742;8.972;2023-04-03T11:03:52;41.77;36.69;60.47;;
45109;Laerm;30447;48.742;8.972;2023-04-03T11:06:24;51.26;38.05;67.87;;
45109;Laerm;30447;48.742;8.972;2023-04-03T11:09:07;40.87;36.69;49.44;;
45109;Laerm;30447;48.742;8.972;2023-04-03T11:11:41;40.49;36.20;51.22;;
45109;Laerm;30447;48.742;8.972;2023-04-03T11:14:22;39.88;36.20;48.23;;
45109;Laerm;30447;48.742;8.972;2023-04-03T11:22:23;43.36;37.70;62.96;;
45109;Laerm;30447;48.742;8.972;2023-04-03T11:27:45;41.08;37.32;49.33;;
45109;Laerm;30447;48.742;8.972;2023-04-03T11:30:29;41.03;37.12;55.59;;
45109;Laerm;30447;48.742;8.972;2023-04-03T11:33:15;41.51;37.52;50.72;;
45109;Laerm;30447;48.742;8.972;2023-04-03T11:35:54;40.99;37.52;44.97;;
45109;Laerm;30447;48.742;8.972;2023-04-03T11:38:36;41.49;37.52;48.61;;
45109;Laerm;30447;48.742;8.972;2023-04-03T11:41:07;42.52;37.70;49.00;;
45109;Laerm;30447;48.742;8.972;2023-04-03T11:43:55;42.65;36.45;59.76;;
45109;Laerm;30447;48.742;8.972;2023-04-03T11:46:49;48.90;36.45;71.63;;
45109;Laerm;30447;48.742;8.972;2023-04-03T11:49:55;41.40;36.91;49.40;;
45109;Laerm;30447;48.742;8.972;2023-04-03T12:08:46;41.99;37.32;49.57;;
45109;Laerm;30447;48.742;8.972;2023-04-03T12:19:29;41.78;36.69;52.42;;
45109;Laerm;30447;48.742;8.972;2023-04-03T12:24:31;40.50;36.69;49.49;;
45109;Laerm;30447;48.742;8.972;2023-04-03T12:27:32;43.39;37.52;55.90;;
45109;Laerm;30447;48.742;8.972;2023-04-03T12:32:46;42.61;37.88;49.44;;
45109;Laerm;30447;48.742;8.972;2023-04-03T12:46:43;42.84;38.21;53.49;;
45109;Laerm;30447;48.742;8.972;2023-04-03T12:49:39;43.25;37.88;62.74;;
45109;Laerm;30447;48.742;8.972;2023-04-03T12:52:30;40.66;36.45;47.10;;
45109;Laerm;30447;48.742;8.972;2023-04-03T12:55:00;42.36;37.12;48.46;;
45109;Laerm;30447;48.742;8.972;2023-04-03T12:57:30;40.61;35.94;51.23;;
45109;Laerm;30447;48.742;8.972;2023-04-03T12:59:59;40.42;37.12;47.22;;
45109;Laerm;30447;48.742;8.972;2023-04-03T13:02:28;40.88;37.32;45.17;;
45109;Laerm;30447;48.742;8.972;2023-04-03T13:05:17;40.71;36.91;48.49;;
45109;Laerm;30447;48.742;8.972;2023-04-03T13:07:49;40.22;36.91;43.81;;
45109;Laerm;30447;48.742;8.972;2023-04-03T13:10:18;40.91;36.69;54.34;;
45109;Laerm;30447;48.742;8.972;2023-04-03T13:15:19;42.71;36.91;53.74;;
45109;Laerm;30447;48.742;8.972;2023-04-03T13:17:46;43.21;37.88;61.48;;
45109;Laerm;30447;48.742;8.972;2023-04-03T13:20:26;41.49;38.21;57.38;;
45109;Laerm;30447;48.742;8.972;2023-04-03T13:23:05;40.94;37.12;49.60;;
45109;Laerm;30447;48.742;8.972;2023-04-03T13:25:41;40.80;35.94;50.28;;
45109;Laerm;30447;48.742;8.972;2023-04-03T13:28:17;41.44;37.12;47.70;;
45109;Laerm;30447;48.742;8.972;2023-04-03T13:33:26;41.11;36.91;51.15;;
45109;Laerm;30447;48.742;8.972;2023-04-03T13:36:07;44.93;36.69;51.66;;
45109;Laerm;30447;48.742;8.972;2023-04-03T13:38:39;40.80;36.69;49.90;;
45109;Laerm;30447;48.742;8.972;2023-04-03T13:41:25;40.99;37.52;48.73;;
45109;Laerm;30447;48.742;8.972;2023-04-03T13:43:51;46.55;38.21;52.19;;
45109;Laerm;30447;48.742;8.972;2023-04-03T13:48:47;44.82;36.69;53.36;;
45109;Laerm;30447;48.742;8.972;2023-04-03T13:53:46;58.65;48.13;67.44;;
45109;Laerm;30447;48.742;8.972;2023-04-03T13:56:18;57.82;48.39;65.84;;
45109;Laerm;30447;48.742;8.972;2023-04-03T13:58:59;58.16;48.25;67.65;;
45109;Laerm;30447;48.742;8.972;2023-04-03T14:07:12;49.28;42.88;60.08;;
45109;Laerm;30447;48.742;8.972;2023-04-03T14:09:38;50.75;36.69;59.33;;
45109;Laerm;30447;48.742;8.972;2023-04-03T14:12:24;43.64;36.91;66.32;;
45109;Laerm;30447;48.742;8.972;2023-04-03T14:14:51;45.96;37.12;56.73;;
45109;Laerm;30447;48.742;8.972;2023-04-03T14:17:21;40.07;35.94;48.49;;
45109;Laerm;30447;48.742;8.972;2023-04-03T14:19:49;39.73;34.69;46.73;;
45109;Laerm;30447;48.742;8.972;2023-04-03T14:22:25;40.63;36.69;46.13;;
45109;Laerm;30447;48.742;8.972;2023-04-03T14:24:52;40.46;36.20;61.34;;
45109;Laerm;30447;48.742;8.972;2023-04-03T14:27:28;41.29;37.12;56.81;;
45109;Laerm;30447;48.742;8.972;2023-04-03T14:29:57;42.02;38.05;54.58;;
45109;Laerm;30447;48.742;8.972;2023-04-03T14:32:26;41.58;37.52;47.26;;
45109;Laerm;30447;48.742;8.972;2023-04-03T14:34:53;41.50;36.69;61.16;;
45109;Laerm;30447;48.742;8.972;2023-04-03T14:37:23;39.49;36.45;43.86;;
45109;Laerm;30447;48.742;8.972;2023-04-03T14:39:51;43.17;36.34;55.46;;
45109;Laerm;30447;48.742;8.972;2023-04-03T14:42:22;40.08;36.69;46.93;;
45109;Laerm;30447;48.742;8.972;2023-04-03T14:44:50;39.88;36.20;44.51;;
45109;Laerm;30447;48.742;8.972;2023-04-03T14:47:21;40.60;36.91;56.36;;
45109;Laerm;30447;48.742;8.972;2023-04-03T14:49:48;42.73;37.52;51.43;;
45109;Laerm;30447;48.742;8.972;2023-04-03T14:52:25;40.53;36.20;44.83;;
45109;Laerm;30447;48.742;8.972;2023-04-03T14:54:54;40.61;36.69;54.23;;
45109;Laerm;30447;48.742;8.972;2023-04-03T14:57:24;40.84;35.94;48.40;;
45109;Laerm;30447;48.742;8.972;2023-04-03T14:59:51;40.90;35.94;52.81;;
45109;Laerm;30447;48.742;8.972;2023-04-03T15:02:35;41.38;36.69;52.00;;
45109;Laerm;30447;48.742;8.972;2023-04-03T15:05:05;40.73;37.35;45.45;;
45109;Laerm;30447;48.742;8.972;2023-04-03T15:07:35;42.72;37.32;52.87;;
45109;Laerm;30447;48.742;8.972;2023-04-03T15:12:42;39.77;35.36;44.03;;
45109;Laerm;30447;48.742;8.972;2023-04-03T15:15:09;39.82;35.36;45.04;;
45109;Laerm;30447;48.742;8.972;2023-04-03T15:17:36;39.42;35.94;44.07;;
45109;Laerm;30447;48.742;8.972;2023-04-03T15:20:12;40.04;35.36;48.28;;
45109;Laerm;30447;48.742;8.972;2023-04-03T15:22:39;39.72;35.66;54.76;;
45109;Laerm;30447;48.742;8.972;2023-04-03T15:25:07;40.20;35.36;46.66;;
45109;Laerm;30447;48.742;8.972;2023-04-03T15:27:34;41.94;37.12;62.01;;
45109;Laerm;30447;48.742;8.972;2023-04-03T15:30:00;43.21;36.45;64.21;;
45109;Laerm;30447;48.742;8.972;2023-04-03T15:32:27;41.62;37.12;59.69;;
45109;Laerm;30447;48.742;8.972;2023-04-03T15:34:53;40.23;36.45;52.98;;
45109;Laerm;30447;48.742;8.972;2023-04-03T15:37:20;43.79;36.45;56.77;;
45109;Laerm;30447;48.742;8.972;2023-04-03T15:39:47;40.46;35.94;51.08;;